sensor_id;sensor_type;location;lat;lon;timestamp;P1;durP1;ratioP1;P2;durP2;ratioP2
27293;SDS011;14785;52.556;13.430;2024-02-23T00:02:12;19.65;;;18.55;;
27293;SDS011;14785;52.556;13.430;2024-02-23T00:04:37;12.90;;;12.03;;
27293;SDS011;14785;52.556;13.430;2024-02-23T00:07:03;8.53;;;8.03;;
27293;SDS011;14785;52.556;13.430;2024-02-23T00:09:28;9.37;;;8.87;;
27293;SDS011;14785;52.556;13.430;2024-02-23T00:11:53;11.13;;;10.50;;
27293;SDS011;14785;52.556;13.430;2024-02-23T00:14:19;15.13;;;14.33;;
27293;SDS011;14785;52.556;13.430;2024-02-23T00:16:45;11.23;;;10.63;;
27293;SDS011;14785;52.556;13.430;2024-02-23T00:19:13;11.63;;;10.85;;
27293;SDS011;14785;52.556;13.430;2024-02-23T00:21:38;23.45;;;22.10;;
27293;SDS011;14785;52.556;13.430;2024-02-23T00:24:06;18.73;;;17.65;;
27293;SDS011;14785;52.556;13.430;2024-02-23T00:26:31;16.92;;;16.02;;
27293;SDS011;14785;52.556;13.430;2024-02-23T00:28:57;21.63;;;20.43;;
27293;SDS011;14785;52.556;13.430;2024-02-23T00:31:22;16.30;;;15.40;;
27293;SDS011;14785;52.556;13.430;2024-02-23T00:33:48;15.53;;;14.73;;
27293;SDS011;14785;52.556;13.430;2024-02-23T00:36:13;20.90;;;19.80;;
27293;SDS011;14785;52.556;13.430;2024-02-23T00:38:39;14.60;;;13.80;;
27293;SDS011;14785;52.556;13.430;2024-02-23T00:41:04;15.00;;;14.20;;
27293;SDS011;14785;52.556;13.430;2024-02-23T00:43:32;9.87;;;9.17;;
27293;SDS011;14785;52.556;13.430;2024-02-23T00:46:03;14.43;;;13.55;;
27293;SDS011;14785;52.556;13.430;2024-02-23T00:50:54;16.70;;;15.70;;
27293;SDS011;14785;52.556;13.430;2024-02-23T00:53:20;13.80;;;12.77;;
27293;SDS011;14785;52.556;13.430;2024-02-23T00:55:45;18.23;;;17.23;;
27293;SDS011;14785;52.556;13.430;2024-02-23T00:58:11;31.13;;;29.43;;
27293;SDS011;14785;52.556;13.430;2024-02-23T01:00:36;23.23;;;22.00;;
27293;SDS011;14785;52.556;13.430;2024-02-23T01:03:01;21.30;;;20.07;;
27293;SDS011;14785;52.556;13.430;2024-02-23T01:05:27;19.90;;;18.80;;
27293;SDS011;14785;52.556;13.430;2024-02-23T01:07:53;14.70;;;13.95;;
27293;SDS011;14785;52.556;13.430;2024-02-23T01:10:19;12.37;;;11.67;;
27293;SDS011;14785;52.556;13.430;2024-02-23T01:12:44;9.10;;;8.60;;
27293;SDS011;14785;52.556;13.430;2024-02-23T01:15:09;9.30;;;8.60;;
27293;SDS011;14785;52.556;13.430;2024-02-23T01:17:36;24.90;;;23.42;;
27293;SDS011;14785;52.556;13.430;2024-02-23T01:20:02;18.90;;;17.80;;
27293;SDS011;14785;52.556;13.430;2024-02-23T01:22:28;10.15;;;9.55;;
27293;SDS011;14785;52.556;13.430;2024-02-23T01:24:53;19.07;;;17.77;;
27293;SDS011;14785;52.556;13.430;2024-02-23T01:27:20;17.63;;;16.73;;
27293;SDS011;14785;52.556;13.430;2024-02-23T01:32:10;16.13;;;15.23;;
27293;SDS011;14785;52.556;13.430;2024-02-23T01:34:36;20.03;;;19.00;;
27293;SDS011;14785;52.556;13.430;2024-02-23T01:37:01;30.33;;;28.63;;
27293;SDS011;14785;52.556;13.430;2024-02-23T01:39:28;13.63;;;12.82;;
27293;SDS011;14785;52.556;13.430;2024-02-23T01:41:53;10.40;;;9.77;;
27293;SDS011;14785;52.556;13.430;2024-02-23T01:44:20;9.30;;;8.70;;
27293;SDS011;14785;52.556;13.430;2024-02-23T01:46:46;15.27;;;14.48;;
27293;SDS011;14785;52.556;13.430;2024-02-23T01:49:12;22.95;;;21.48;;
27293;SDS011;14785;52.556;13.430;2024-02-23T01:51:38;24.02;;;22.77;;
27293;SDS011;14785;52.556;13.430;2024-02-23T01:54:04;19.85;;;18.73;;
27293;SDS011;14785;52.556;13.430;2024-02-23T01:56:31;17.92;;;17.00;;
27293;SDS011;14785;52.556;13.430;2024-02-23T01:58:58;8.07;;;7.57;;
27293;SDS011;14785;52.556;13.430;2024-02-23T02:01:24;11.50;;;10.88;;
27293;SDS011;14785;52.556;13.430;2024-02-23T02:03:50;9.05;;;8.40;;
27293;SDS011;14785;52.556;13.430;2024-02-23T02:06:15;8.87;;;8.20;;
27293;SDS011;14785;52.556;13.430;2024-02-23T02:08:41;9.93;;;9.43;;
27293;SDS011;14785;52.556;13.430;2024-02-23T02:11:06;6.93;;;6.43;;
27293;SDS011;14785;52.556;13.430;2024-02-23T02:13:32;9.23;;;7.70;;
27293;SDS011;14785;52.556;13.430;2024-02-23T02:15:59;6.37;;;5.93;;
27293;SDS011;14785;52.556;13.430;2024-02-23T02:18:26;7.93;;;7.28;;
27293;SDS011;14785;52.556;13.430;2024-02-23T02:20:52;8.57;;;8.17;;
27293;SDS011;14785;52.556;13.430;2024-02-23T02:23:20;10.18;;;9.50;;
27293;SDS011;14785;52.556;13.430;2024-02-23T02:25:52;6.75;;;6.22;;
27293;SDS011;14785;52.556;13.430;2024-02-23T02:28:21;8.60;;;8.10;;
27293;SDS011;14785;52.556;13.430;2024-02-23T02:30:47;16.83;;;15.88;;
27293;SDS011;14785;52.556;13.430;2024-02-23T02:33:13;18.40;;;17.20;;
27293;SDS011;14785;52.556;13.430;2024-02-23T02:35:39;17.77;;;16.87;;
27293;SDS011;14785;52.556;13.430;2024-02-23T02:38:04;7.67;;;7.23;;
27293;SDS011;14785;52.556;13.430;2024-02-23T02:40:29;8.10;;;7.50;;
27293;SDS011;14785;52.556;13.430;2024-02-23T02:42:56;7.75;;;7.15;;
27293;SDS011;14785;52.556;13.430;2024-02-23T02:45:22;9.13;;;8.33;;
27293;SDS011;14785;52.556;13.430;2024-02-23T02:50:14;6.15;;;5.85;;
27293;SDS011;14785;52.556;13.430;2024-02-23T02:52:40;9.37;;;8.67;;
27293;SDS011;14785;52.556;13.430;2024-02-23T02:55:05;9.37;;;8.40;;
27293;SDS011;14785;52.556;13.430;2024-02-23T02:57:31;13.18;;;12.43;;
27293;SDS011;14785;52.556;13.430;2024-02-23T03:02:23;12.80;;;11.82;;
27293;SDS011;14785;52.556;13.430;2024-02-23T03:04:49;9.77;;;9.27;;
27293;SDS011;14785;52.556;13.430;2024-02-23T03:07:18;18.48;;;17.08;;
27293;SDS011;14785;52.556;13.430;2024-02-23T03:09:44;11.70;;;10.93;;
27293;SDS011;14785;52.556;13.430;2024-02-23T03:12:10;17.58;;;16.58;;
27293;SDS011;14785;52.556;13.430;2024-02-23T03:14:35;11.00;;;10.40;;
27293;SDS011;14785;52.556;13.430;2024-02-23T03:17:05;12.35;;;11.32;;
27293;SDS011;14785;52.556;13.430;2024-02-23T03:19:32;12.88;;;12.13;;
27293;SDS011;14785;52.556;13.430;2024-02-23T03:21:59;8.47;;;7.83;;
27293;SDS011;14785;52.556;13.430;2024-02-23T03:24:24;12.82;;;11.95;;
27293;SDS011;14785;52.556;13.430;2024-02-23T03:26:50;8.10;;;7.50;;
27293;SDS011;14785;52.556;13.430;2024-02-23T03:29:15;7.93;;;7.50;;
27293;SDS011;14785;52.556;13.430;2024-02-23T03:31:40;7.60;;;7.20;;
27293;SDS011;14785;52.556;13.430;2024-02-23T03:34:06;10.03;;;8.90;;
27293;SDS011;14785;52.556;13.430;2024-02-23T03:36:32;9.75;;;8.93;;
27293;SDS011;14785;52.556;13.430;2024-02-23T03:38:58;10.38;;;9.77;;
27293;SDS011;14785;52.556;13.430;2024-02-23T03:41:24;8.60;;;7.97;;
27293;SDS011;14785;52.556;13.430;2024-02-23T03:43:49;7.47;;;7.07;;
27293;SDS011;14785;52.556;13.430;2024-02-23T03:46:14;7.13;;;6.43;;
27293;SDS011;14785;52.556;13.430;2024-02-23T03:48:42;7.47;;;6.97;;
27293;SDS011;14785;52.556;13.430;2024-02-23T03:51:09;8.60;;;7.95;;
27293;SDS011;14785;52.556;13.430;2024-02-23T03:53:35;7.57;;;7.07;;
27293;SDS011;14785;52.556;13.430;2024-02-23T03:56:00;9.00;;;8.50;;
27293;SDS011;14785;52.556;13.430;2024-02-23T03:58:25;8.37;;;7.97;;
27293;SDS011;14785;52.556;13.430;2024-02-23T04:00:51;8.07;;;7.23;;
27293;SDS011;14785;52.556;13.430;2024-02-23T04:03:18;11.25;;;10.65;;
27293;SDS011;14785;52.556;13.430;2024-02-23T04:05:43;10.67;;;10.07;;
27293;SDS011;14785;52.556;13.430;2024-02-23T04:08:09;9.50;;;8.60;;
27293;SDS011;14785;52.556;13.430;2024-02-23T04:10:34;6.97;;;6.57;;
27293;SDS011;14785;52.556;13.430;2024-02-23T04:13:00;11.07;;;10.37;;
27293;SDS011;14785;52.556;13.430;2024-02-23T04:15:26;9.50;;;8.90;;
27293;SDS011;14785;52.556;13.430;2024-02-23T04:17:51;9.33;;;8.73;;
27293;SDS011;14785;52.556;13.430;2024-02-23T04:20:17;6.93;;;6.53;;
27293;SDS011;14785;52.556;13.430;2024-02-23T04:22:42;8.47;;;7.57;;
27293;SDS011;14785;52.556;13.430;2024-02-23T04:25:08;15.07;;;14.10;;
27293;SDS011;14785;52.556;13.430;2024-02-23T04:27:35;14.97;;;13.83;;
27293;SDS011;14785;52.556;13.430;2024-02-23T04:30:00;11.05;;;10.25;;
27293;SDS011;14785;52.556;13.430;2024-02-23T04:32:26;10.65;;;9.88;;
27293;SDS011;14785;52.556;13.430;2024-02-23T04:34:51;11.13;;;10.40;;
27293;SDS011;14785;52.556;13.430;2024-02-23T04:37:17;9.13;;;8.60;;
27293;SDS011;14785;52.556;13.430;2024-02-23T04:39:45;9.60;;;9.00;;
27293;SDS011;14785;52.556;13.430;2024-02-23T04:42:11;9.73;;;9.13;;
27293;SDS011;14785;52.556;13.430;2024-02-23T04:44:36;16.13;;;15.20;;
27293;SDS011;14785;52.556;13.430;2024-02-23T04:47:02;5.53;;;5.13;;
27293;SDS011;14785;52.556;13.430;2024-02-23T04:49:28;7.60;;;7.07;;
27293;SDS011;14785;52.556;13.430;2024-02-23T04:51:53;8.13;;;7.50;;
27293;SDS011;14785;52.556;13.430;2024-02-23T04:54:19;5.40;;;4.90;;
27293;SDS011;14785;52.556;13.430;2024-02-23T04:56:45;9.60;;;8.77;;
27293;SDS011;14785;52.556;13.430;2024-02-23T04:59:10;7.57;;;7.07;;
27293;SDS011;14785;52.556;13.430;2024-02-23T05:01:36;7.83;;;5.23;;
27293;SDS011;14785;52.556;13.430;2024-02-23T05:06:28;6.15;;;4.90;;
27293;SDS011;14785;52.556;13.430;2024-02-23T05:08:54;6.00;;;5.55;;
27293;SDS011;14785;52.556;13.430;2024-02-23T05:11:19;6.53;;;5.93;;
27293;SDS011;14785;52.556;13.430;2024-02-23T05:13:45;10.93;;;10.30;;
27293;SDS011;14785;52.556;13.430;2024-02-23T05:16:13;9.53;;;9.03;;
27293;SDS011;14785;52.556;13.430;2024-02-23T05:18:39;9.10;;;8.60;;
27293;SDS011;14785;52.556;13.430;2024-02-23T05:21:05;6.72;;;6.28;;
27293;SDS011;14785;52.556;13.430;2024-02-23T05:23:31;7.77;;;6.40;;
27293;SDS011;14785;52.556;13.430;2024-02-23T05:25:56;6.23;;;5.63;;
27293;SDS011;14785;52.556;13.430;2024-02-23T05:28:21;6.73;;;6.33;;
27293;SDS011;14785;52.556;13.430;2024-02-23T05:30:47;5.93;;;5.43;;
27293;SDS011;14785;52.556;13.430;2024-02-23T05:33:12;9.53;;;8.83;;
27293;SDS011;14785;52.556;13.430;2024-02-23T05:35:37;18.27;;;17.10;;
27293;SDS011;14785;52.556;13.430;2024-02-23T05:38:03;7.30;;;6.67;;
27293;SDS011;14785;52.556;13.430;2024-02-23T05:40:30;7.30;;;6.78;;
27293;SDS011;14785;52.556;13.430;2024-02-23T05:42:56;9.20;;;8.53;;
27293;SDS011;14785;52.556;13.430;2024-02-23T05:45:21;13.57;;;12.57;;
27293;SDS011;14785;52.556;13.430;2024-02-23T05:47:47;9.80;;;9.07;;
27293;SDS011;14785;52.556;13.430;2024-02-23T05:50:12;16.43;;;15.53;;
27293;SDS011;14785;52.556;13.430;2024-02-23T05:52:38;41.20;;;39.10;;
27293;SDS011;14785;52.556;13.430;2024-02-23T05:55:04;26.55;;;25.17;;
27293;SDS011;14785;52.556;13.430;2024-02-23T05:57:30;13.57;;;12.80;;
27293;SDS011;14785;52.556;13.430;2024-02-23T05:59:55;9.43;;;8.93;;
27293;SDS011;14785;52.556;13.430;2024-02-23T06:02:21;10.77;;;10.07;;
27293;SDS011;14785;52.556;13.430;2024-02-23T06:04:47;12.85;;;12.20;;
27293;SDS011;14785;52.556;13.430;2024-02-23T06:07:13;26.10;;;24.77;;
27293;SDS011;14785;52.556;13.430;2024-02-23T06:09:40;35.95;;;34.17;;
27293;SDS011;14785;52.556;13.430;2024-02-23T06:12:06;18.15;;;17.00;;
27293;SDS011;14785;52.556;13.430;2024-02-23T06:14:32;23.55;;;22.10;;
27293;SDS011;14785;52.556;13.430;2024-02-23T06:16:57;18.40;;;17.43;;
27293;SDS011;14785;52.556;13.430;2024-02-23T06:19:23;18.13;;;17.17;;
27293;SDS011;14785;52.556;13.430;2024-02-23T06:21:48;16.52;;;15.70;;
27293;SDS011;14785;52.556;13.430;2024-02-23T06:24:15;18.02;;;16.92;;
27293;SDS011;14785;52.556;13.430;2024-02-23T06:26:40;36.15;;;34.30;;
27293;SDS011;14785;52.556;13.430;2024-02-23T06:29:07;51.13;;;48.33;;
27293;SDS011;14785;52.556;13.430;2024-02-23T06:31:37;44.97;;;42.70;;
27293;SDS011;14785;52.556;13.430;2024-02-23T06:34:03;44.88;;;42.60;;
27293;SDS011;14785;52.556;13.430;2024-02-23T06:36:29;40.90;;;38.85;;
27293;SDS011;14785;52.556;13.430;2024-02-23T06:38:57;41.77;;;39.63;;
27293;SDS011;14785;52.556;13.430;2024-02-23T06:41:23;31.52;;;29.60;;
27293;SDS011;14785;52.556;13.430;2024-02-23T06:43:48;24.30;;;22.97;;
27293;SDS011;14785;52.556;13.430;2024-02-23T06:46:14;22.33;;;20.80;;
27293;SDS011;14785;52.556;13.430;2024-02-23T06:48:39;23.83;;;22.63;;
27293;SDS011;14785;52.556;13.430;2024-02-23T06:51:05;29.00;;;27.43;;
27293;SDS011;14785;52.556;13.430;2024-02-23T06:53:34;25.08;;;23.65;;
27293;SDS011;14785;52.556;13.430;2024-02-23T06:56:02;17.35;;;16.45;;
27293;SDS011;14785;52.556;13.430;2024-02-23T06:58:29;20.02;;;18.80;;
27293;SDS011;14785;52.556;13.430;2024-02-23T07:00:55;21.57;;;20.37;;
27293;SDS011;14785;52.556;13.430;2024-02-23T07:03:20;34.33;;;32.13;;
27293;SDS011;14785;52.556;13.430;2024-02-23T07:05:45;17.40;;;15.97;;
27293;SDS011;14785;52.556;13.430;2024-02-23T07:08:14;27.20;;;25.85;;
27293;SDS011;14785;52.556;13.430;2024-02-23T07:10:40;18.67;;;17.57;;
27293;SDS011;14785;52.556;13.430;2024-02-23T07:13:05;27.07;;;25.60;;
27293;SDS011;14785;52.556;13.430;2024-02-23T07:15:32;26.48;;;25.08;;
27293;SDS011;14785;52.556;13.430;2024-02-23T07:17:58;26.08;;;24.48;;
27293;SDS011;14785;52.556;13.430;2024-02-23T07:20:23;25.17;;;23.80;;
27293;SDS011;14785;52.556;13.430;2024-02-23T07:22:48;13.80;;;13.10;;
27293;SDS011;14785;52.556;13.430;2024-02-23T07:25:17;30.90;;;28.93;;
27293;SDS011;14785;52.556;13.430;2024-02-23T07:27:45;21.15;;;19.90;;
27293;SDS011;14785;52.556;13.430;2024-02-23T07:30:11;22.35;;;21.17;;
27293;SDS011;14785;52.556;13.430;2024-02-23T07:32:37;19.05;;;18.05;;
27293;SDS011;14785;52.556;13.430;2024-02-23T07:35:03;24.50;;;23.20;;
27293;SDS011;14785;52.556;13.430;2024-02-23T07:37:29;33.70;;;31.67;;
27293;SDS011;14785;52.556;13.430;2024-02-23T07:39:54;18.40;;;17.33;;
27293;SDS011;14785;52.556;13.430;2024-02-23T07:42:20;21.57;;;20.43;;
27293;SDS011;14785;52.556;13.430;2024-02-23T07:44:45;25.63;;;24.20;;
27293;SDS011;14785;52.556;13.430;2024-02-23T07:47:11;21.13;;;20.03;;
27293;SDS011;14785;52.556;13.430;2024-02-23T07:49:37;30.20;;;28.52;;
27293;SDS011;14785;52.556;13.430;2024-02-23T07:52:02;20.30;;;19.20;;
27293;SDS011;14785;52.556;13.430;2024-02-23T07:54:28;18.45;;;17.42;;
27293;SDS011;14785;52.556;13.430;2024-02-23T07:56:53;23.23;;;21.50;;
27293;SDS011;14785;52.556;13.430;2024-02-23T07:59:19;15.97;;;15.17;;
27293;SDS011;14785;52.556;13.430;2024-02-23T08:01:44;14.23;;;13.53;;
27293;SDS011;14785;52.556;13.430;2024-02-23T08:04:10;14.40;;;13.60;;
27293;SDS011;14785;52.556;13.430;2024-02-23T08:06:36;17.80;;;16.80;;
27293;SDS011;14785;52.556;13.430;2024-02-23T08:09:01;18.33;;;17.40;;
27293;SDS011;14785;52.556;13.430;2024-02-23T08:11:27;16.33;;;14.88;;
27293;SDS011;14785;52.556;13.430;2024-02-23T08:13:53;20.60;;;19.50;;
27293;SDS011;14785;52.556;13.430;2024-02-23T08:16:19;20.20;;;19.10;;
27293;SDS011;14785;52.556;13.430;2024-02-23T08:18:46;19.58;;;18.35;;
27293;SDS011;14785;52.556;13.430;2024-02-23T08:21:12;18.75;;;17.75;;
27293;SDS011;14785;52.556;13.430;2024-02-23T08:23:37;11.60;;;11.00;;
27293;SDS011;14785;52.556;13.430;2024-02-23T08:26:03;14.00;;;13.20;;
27293;SDS011;14785;52.556;13.430;2024-02-23T08:28:28;13.07;;;12.40;;
27293;SDS011;14785;52.556;13.430;2024-02-23T08:30:54;23.60;;;22.40;;
27293;SDS011;14785;52.556;13.430;2024-02-23T08:33:20;24.98;;;23.70;;
27293;SDS011;14785;52.556;13.430;2024-02-23T08:35:45;23.03;;;21.87;;
27293;SDS011;14785;52.556;13.430;2024-02-23T08:38:13;24.02;;;22.00;;
27293;SDS011;14785;52.556;13.430;2024-02-23T08:40:39;18.27;;;16.67;;
27293;SDS011;14785;52.556;13.430;2024-02-23T08:43:05;22.70;;;21.40;;
27293;SDS011;14785;52.556;13.430;2024-02-23T08:45:30;13.10;;;12.37;;
27293;SDS011;14785;52.556;13.430;2024-02-23T08:47:56;13.00;;;12.00;;
27293;SDS011;14785;52.556;13.430;2024-02-23T08:50:21;31.23;;;29.60;;
27293;SDS011;14785;52.556;13.430;2024-02-23T08:52:47;67.67;;;64.20;;
27293;SDS011;14785;52.556;13.430;2024-02-23T08:55:12;27.77;;;26.07;;
27293;SDS011;14785;52.556;13.430;2024-02-23T08:57:37;26.53;;;25.17;;
27293;SDS011;14785;52.556;13.430;2024-02-23T09:00:04;9.53;;;9.03;;
27293;SDS011;14785;52.556;13.430;2024-02-23T09:02:30;18.73;;;17.70;;
27293;SDS011;14785;52.556;13.430;2024-02-23T09:04:57;14.32;;;13.57;;
27293;SDS011;14785;52.556;13.430;2024-02-23T09:07:23;12.50;;;11.80;;
27293;SDS011;14785;52.556;13.430;2024-02-23T09:09:49;15.35;;;14.48;;
27293;SDS011;14785;52.556;13.430;2024-02-23T09:12:15;12.33;;;11.53;;
27293;SDS011;14785;52.556;13.430;2024-02-23T09:17:08;13.03;;;12.23;;
27293;SDS011;14785;52.556;13.430;2024-02-23T09:19:36;11.80;;;11.07;;
27293;SDS011;14785;52.556;13.430;2024-02-23T09:22:02;11.90;;;11.30;;
27293;SDS011;14785;52.556;13.430;2024-02-23T09:24:28;10.05;;;9.45;;
27293;SDS011;14785;52.556;13.430;2024-02-23T09:26:53;12.77;;;12.07;;
27293;SDS011;14785;52.556;13.430;2024-02-23T09:29:19;15.97;;;15.10;;
27293;SDS011;14785;52.556;13.430;2024-02-23T09:31:47;7.22;;;6.78;;
27293;SDS011;14785;52.556;13.430;2024-02-23T09:34:13;7.70;;;7.15;;
27293;SDS011;14785;52.556;13.430;2024-02-23T09:36:38;5.80;;;5.47;;
27293;SDS011;14785;52.556;13.430;2024-02-23T09:39:04;7.93;;;7.40;;
27293;SDS011;14785;52.556;13.430;2024-02-23T09:41:32;8.07;;;7.57;;
27293;SDS011;14785;52.556;13.430;2024-02-23T09:44:00;8.48;;;8.02;;
27293;SDS011;14785;52.556;13.430;2024-02-23T09:46:26;6.97;;;6.50;;
27293;SDS011;14785;52.556;13.430;2024-02-23T09:48:54;6.75;;;6.28;;
27293;SDS011;14785;52.556;13.430;2024-02-23T09:51:21;7.20;;;6.80;;
27293;SDS011;14785;52.556;13.430;2024-02-23T09:53:48;6.82;;;6.22;;
27293;SDS011;14785;52.556;13.430;2024-02-23T09:56:15;4.53;;;4.15;;
27293;SDS011;14785;52.556;13.430;2024-02-23T09:58:42;6.85;;;5.80;;
27293;SDS011;14785;52.556;13.430;2024-02-23T10:01:09;4.93;;;4.70;;
27293;SDS011;14785;52.556;13.430;2024-02-23T10:03:36;5.97;;;5.55;;
27293;SDS011;14785;52.556;13.430;2024-02-23T10:06:04;5.70;;;4.95;;
27293;SDS011;14785;52.556;13.430;2024-02-23T10:08:30;5.82;;;5.32;;
27293;SDS011;14785;52.556;13.430;2024-02-23T10:10:56;6.20;;;5.77;;
27293;SDS011;14785;52.556;13.430;2024-02-23T10:13:24;7.40;;;6.82;;
27293;SDS011;14785;52.556;13.430;2024-02-23T10:15:50;7.78;;;7.38;;
27293;SDS011;14785;52.556;13.430;2024-02-23T10:18:17;7.63;;;7.13;;
27293;SDS011;14785;52.556;13.430;2024-02-23T10:20:44;5.65;;;4.90;;
27293;SDS011;14785;52.556;13.430;2024-02-23T10:23:10;8.50;;;7.80;;
27293;SDS011;14785;52.556;13.430;2024-02-23T10:25:35;6.70;;;4.97;;
27293;SDS011;14785;52.556;13.430;2024-02-23T10:28:02;7.25;;;6.53;;
27293;SDS011;14785;52.556;13.430;2024-02-23T10:30:28;8.18;;;7.68;;
27293;SDS011;14785;52.556;13.430;2024-02-23T10:32:55;5.93;;;5.50;;
27293;SDS011;14785;52.556;13.430;2024-02-23T10:35:24;5.70;;;5.13;;
27293;SDS011;14785;52.556;13.430;2024-02-23T10:37:51;6.40;;;6.00;;
27293;SDS011;14785;52.556;13.430;2024-02-23T10:40:18;6.32;;;5.72;;
27293;SDS011;14785;52.556;13.430;2024-02-23T10:42:49;5.53;;;5.20;;
27293;SDS011;14785;52.556;13.430;2024-02-23T10:45:19;7.07;;;6.63;;
27293;SDS011;14785;52.556;13.430;2024-02-23T10:47:50;7.93;;;7.18;;
27293;SDS011;14785;52.556;13.430;2024-02-23T10:50:16;6.95;;;6.35;;
27293;SDS011;14785;52.556;13.430;2024-02-23T10:52:44;6.18;;;5.65;;
27293;SDS011;14785;52.556;13.430;2024-02-23T10:55:10;6.15;;;5.70;;
27293;SDS011;14785;52.556;13.430;2024-02-23T10:57:37;6.93;;;6.33;;
27293;SDS011;14785;52.556;13.430;2024-02-23T11:00:07;5.47;;;5.18;;
27293;SDS011;14785;52.556;13.430;2024-02-23T11:02:39;7.63;;;7.13;;
27293;SDS011;14785;52.556;13.430;2024-02-23T11:05:11;8.52;;;7.88;;
27293;SDS011;14785;52.556;13.430;2024-02-23T11:07:40;5.60;;;5.10;;
27293;SDS011;14785;52.556;13.430;2024-02-23T11:10:06;7.00;;;6.53;;
27293;SDS011;14785;52.556;13.430;2024-02-23T11:12:36;9.93;;;9.15;;
27293;SDS011;14785;52.556;13.430;2024-02-23T11:15:01;5.27;;;4.93;;
27293;SDS011;14785;52.556;13.430;2024-02-23T11:17:28;6.13;;;5.63;;
27293;SDS011;14785;52.556;13.430;2024-02-23T11:19:55;5.35;;;4.95;;
27293;SDS011;14785;52.556;13.430;2024-02-23T11:22:35;6.55;;;6.03;;
27293;SDS011;14785;52.556;13.430;2024-02-23T11:25:06;7.35;;;6.65;;
27293;SDS011;14785;52.556;13.430;2024-02-23T11:27:38;6.30;;;5.78;;
27293;SDS011;14785;52.556;13.430;2024-02-23T11:30:08;6.90;;;6.35;;
27293;SDS011;14785;52.556;13.430;2024-02-23T11:32:43;20.08;;;18.80;;
27293;SDS011;14785;52.556;13.430;2024-02-23T11:35:11;16.67;;;15.50;;
27293;SDS011;14785;52.556;13.430;2024-02-23T11:37:46;13.70;;;12.60;;
27293;SDS011;14785;52.556;13.430;2024-02-23T11:42:42;7.53;;;6.95;;
27293;SDS011;14785;52.556;13.430;2024-02-23T11:45:09;19.38;;;18.20;;
27293;SDS011;14785;52.556;13.430;2024-02-23T11:47:36;23.58;;;22.30;;
27293;SDS011;14785;52.556;13.430;2024-02-23T11:50:08;10.10;;;8.88;;
27293;SDS011;14785;52.556;13.430;2024-02-23T11:52:36;6.88;;;6.28;;
27293;SDS011;14785;52.556;13.430;2024-02-23T11:55:06;13.32;;;12.32;;
27293;SDS011;14785;52.556;13.430;2024-02-23T11:57:33;9.98;;;9.13;;
27293;SDS011;14785;52.556;13.430;2024-02-23T12:00:07;7.80;;;7.10;;
27293;SDS011;14785;52.556;13.430;2024-02-23T12:02:37;9.68;;;6.82;;
27293;SDS011;14785;52.556;13.430;2024-02-23T12:05:03;8.98;;;8.35;;
27293;SDS011;14785;52.556;13.430;2024-02-23T12:07:29;9.95;;;8.90;;
27293;SDS011;14785;52.556;13.430;2024-02-23T12:09:56;9.27;;;8.68;;
27293;SDS011;14785;52.556;13.430;2024-02-23T12:12:22;8.52;;;7.93;;
27293;SDS011;14785;52.556;13.430;2024-02-23T12:17:14;9.00;;;8.30;;
27293;SDS011;14785;52.556;13.430;2024-02-23T12:19:40;7.33;;;6.77;;
27293;SDS011;14785;52.556;13.430;2024-02-23T12:22:07;8.85;;;8.18;;
27293;SDS011;14785;52.556;13.430;2024-02-23T12:24:34;6.88;;;5.40;;
27293;SDS011;14785;52.556;13.430;2024-02-23T12:27:01;7.45;;;6.75;;
27293;SDS011;14785;52.556;13.430;2024-02-23T12:29:26;6.47;;;5.88;;
27293;SDS011;14785;52.556;13.430;2024-02-23T12:34:28;9.23;;;8.48;;
27293;SDS011;14785;52.556;13.430;2024-02-23T12:36:55;7.28;;;6.65;;
27293;SDS011;14785;52.556;13.430;2024-02-23T12:39:20;8.43;;;7.83;;
27293;SDS011;14785;52.556;13.430;2024-02-23T12:41:46;6.10;;;5.70;;
27293;SDS011;14785;52.556;13.430;2024-02-23T12:44:12;7.33;;;6.73;;
27293;SDS011;14785;52.556;13.430;2024-02-23T12:46:38;9.40;;;8.43;;
27293;SDS011;14785;52.556;13.430;2024-02-23T12:49:04;10.90;;;9.95;;
27293;SDS011;14785;52.556;13.430;2024-02-23T12:51:29;7.47;;;7.00;;
27293;SDS011;14785;52.556;13.430;2024-02-23T12:53:55;6.30;;;5.90;;
27293;SDS011;14785;52.556;13.430;2024-02-23T12:56:20;7.40;;;6.80;;
27293;SDS011;14785;52.556;13.430;2024-02-23T12:58:47;5.73;;;5.23;;
27293;SDS011;14785;52.556;13.430;2024-02-23T13:01:16;6.00;;;4.78;;
27293;SDS011;14785;52.556;13.430;2024-02-23T13:03:43;6.23;;;5.63;;
27293;SDS011;14785;52.556;13.430;2024-02-23T13:06:10;10.43;;;9.73;;
27293;SDS011;14785;52.556;13.430;2024-02-23T13:08:35;9.25;;;6.57;;
27293;SDS011;14785;52.556;13.430;2024-02-23T13:11:01;7.37;;;6.77;;
27293;SDS011;14785;52.556;13.430;2024-02-23T13:13:26;7.35;;;6.75;;
27293;SDS011;14785;52.556;13.430;2024-02-23T13:15:52;10.63;;;9.90;;
27293;SDS011;14785;52.556;13.430;2024-02-23T13:18:18;6.85;;;6.25;;
27293;SDS011;14785;52.556;13.430;2024-02-23T13:20:45;13.38;;;7.38;;
27293;SDS011;14785;52.556;13.430;2024-02-23T13:23:11;6.90;;;6.32;;
27293;SDS011;14785;52.556;13.430;2024-02-23T13:25:38;7.60;;;6.15;;
27293;SDS011;14785;52.556;13.430;2024-02-23T13:28:05;6.82;;;6.22;;
27293;SDS011;14785;52.556;13.430;2024-02-23T13:32:59;5.75;;;5.28;;
27293;SDS011;14785;52.556;13.430;2024-02-23T13:35:25;6.03;;;5.55;;
27293;SDS011;14785;52.556;13.430;2024-02-23T13:37:52;10.90;;;10.13;;
27293;SDS011;14785;52.556;13.430;2024-02-23T13:40:19;7.95;;;7.35;;
27293;SDS011;14785;52.556;13.430;2024-02-23T13:42:45;5.97;;;5.45;;
27293;SDS011;14785;52.556;13.430;2024-02-23T13:45:14;9.18;;;8.38;;
27293;SDS011;14785;52.556;13.430;2024-02-23T13:47:40;8.07;;;6.23;;
27293;SDS011;14785;52.556;13.430;2024-02-23T13:50:05;8.07;;;5.43;;
27293;SDS011;14785;52.556;13.430;2024-02-23T13:52:31;6.30;;;5.80;;
27293;SDS011;14785;52.556;13.430;2024-02-23T13:54:58;5.95;;;5.45;;
27293;SDS011;14785;52.556;13.430;2024-02-23T13:57:29;6.10;;;5.60;;
27293;SDS011;14785;52.556;13.430;2024-02-23T13:59:55;5.72;;;5.22;;
27293;SDS011;14785;52.556;13.430;2024-02-23T14:03:29;7.60;;;7.00;;
27293;SDS011;14785;52.556;13.430;2024-02-23T14:06:09;7.55;;;6.43;;
27293;SDS011;14785;52.556;13.430;2024-02-23T14:08:41;6.95;;;6.35;;
27293;SDS011;14785;52.556;13.430;2024-02-23T14:11:45;8.35;;;7.82;;
27293;SDS011;14785;52.556;13.430;2024-02-23T14:17:13;6.97;;;6.38;;
27293;SDS011;14785;52.556;13.430;2024-02-23T14:20:02;7.38;;;6.85;;
27293;SDS011;14785;52.556;13.430;2024-02-23T14:22:25;7.40;;;6.80;;
27293;SDS011;14785;52.556;13.430;2024-02-23T14:24:52;6.57;;;5.55;;
27293;SDS011;14785;52.556;13.430;2024-02-23T14:27:18;7.10;;;6.50;;
27293;SDS011;14785;52.556;13.430;2024-02-23T14:33:35;9.10;;;8.20;;
27293;SDS011;14785;52.556;13.430;2024-02-23T14:42:55;7.47;;;6.65;;
27293;SDS011;14785;52.556;13.430;2024-02-23T14:45:23;6.45;;;5.85;;
27293;SDS011;14785;52.556;13.430;2024-02-23T14:47:49;6.45;;;5.78;;
27293;SDS011;14785;52.556;13.430;2024-02-23T14:50:15;6.88;;;5.32;;
27293;SDS011;14785;52.556;13.430;2024-02-23T14:52:50;6.63;;;5.13;;
27293;SDS011;14785;52.556;13.430;2024-02-23T14:55:15;6.32;;;5.00;;
27293;SDS011;14785;52.556;13.430;2024-02-23T14:57:42;6.50;;;5.90;;
27293;SDS011;14785;52.556;13.430;2024-02-23T15:00:08;6.25;;;5.65;;